Time;durP1;ratioP1;P1;durP2;ratioP2;P2;SDS_P1;SDS_P2;PMS_P1;PMS_P2;Temp;Humidity;BMP_temperature;BMP_pressure;BME280_temperature;BME280_humidity;BME280_pressure;Samples;Min_cycle;Max_cycle;Signal;HPM_P1;HPM_P2
2024/01/30 00:00:37;;;;;;;8.73;3.27;;;3.20;99.90;;;;;;5036527;28;20436;-73
2024/01/30 00:03:03;;;;;;;5.70;2.70;;;3.20;99.90;;;;;;5031893;28;20300;-73
2024/01/30 00:05:28;;;;;;;9.97;3.70;;;3.20;99.90;;;;;;5045573;28;20265;-74
2024/01/30 00:07:54;;;;;;;7.23;3.40;;;3.20;99.90;;;;;;5032081;28;20182;-73
2024/01/30 00:10:20;;;;;;;6.27;3.20;;;3.30;99.90;;;;;;5043843;28;20196;-73
2024/01/30 00:12:46;;;;;;;7.90;3.23;;;3.40;99.90;;;;;;5051976;28;20174;-73
2024/01/30 00:15:11;;;;;;;8.33;3.50;;;3.70;99.90;;;;;;5038407;28;20839;-73
2024/01/30 00:17:37;;;;;;;7.70;3.80;;;3.80;99.90;;;;;;5042963;28;20632;-72
2024/01/30 00:20:05;;;;;;;4.37;2.83;;;3.90;99.90;;;;;;5034051;28;20200;-73
2024/01/30 00:22:31;;;;;;;6.50;3.33;;;4.00;99.90;;;;;;5042708;28;20186;-73
2024/01/30 00:24:57;;;;;;;11.33;2.93;;;4.10;99.90;;;;;;5045182;28;20512;-73
2024/01/30 00:27:22;;;;;;;5.23;2.63;;;4.20;99.90;;;;;;5040801;28;20530;-73
2024/01/30 00:29:48;;;;;;;4.90;2.73;;;4.30;99.90;;;;;;5036007;28;20239;-73
2024/01/30 00:32:13;;;;;;;7.23;3.90;;;6.00;99.90;;;;;;5031795;28;20273;-73
2024/01/30 00:34:39;;;;;;;6.03;2.70;;;4.50;99.90;;;;;;5031389;28;20194;-73
2024/01/30 00:37:04;;;;;;;10.17;3.90;;;4.50;99.90;;;;;;5031749;28;20198;-73
2024/01/30 00:39:30;;;;;;;4.53;2.40;;;5.20;99.90;;;;;;5031888;28;20190;-72
2024/01/30 00:41:55;;;;;;;5.40;2.70;;;4.60;99.90;;;;;;5040050;28;20182;-73
2024/01/30 00:44:21;;;;;;;7.10;2.83;;;4.50;99.90;;;;;;5038745;28;20209;-73
2024/01/30 00:46:46;;;;;;;7.07;3.33;;;4.70;99.90;;;;;;5040920;28;20511;-73
2024/01/30 00:49:12;;;;;;;5.10;2.97;;;4.50;99.90;;;;;;5046750;28;20305;-73
2024/01/30 00:51:37;;;;;;;7.27;4.10;;;4.50;99.90;;;;;;5031461;28;20190;-73
2024/01/30 00:54:03;;;;;;;5.20;3.50;;;4.60;99.90;;;;;;5045132;28;20190;-73
2024/01/30 00:56:29;;;;;;;9.03;3.43;;;4.60;99.90;;;;;;5040839;28;20194;-73
2024/01/30 00:58:54;;;;;;;7.20;3.17;;;4.60;99.90;;;;;;5037624;28;20283;-73
2024/01/30 01:01:20;;;;;;;9.77;3.97;;;4.60;99.90;;;;;;5051490;28;20185;-73
2024/01/30 01:03:45;;;;;;;6.13;3.70;;;4.60;99.90;;;;;;5037359;28;20293;-73
2024/01/30 01:06:10;;;;;;;8.20;3.33;;;4.60;99.90;;;;;;5042016;28;20257;-73
2024/01/30 01:08:36;;;;;;;11.43;3.23;;;4.60;99.90;;;;;;5033777;28;20244;-74
2024/01/30 01:11:03;;;;;;;6.67;3.17;;;4.60;99.90;;;;;;5041599;28;20182;-73
2024/01/30 01:13:29;;;;;;;8.30;4.27;;;4.60;99.90;;;;;;5031312;28;20201;-73
2024/01/30 01:15:54;;;;;;;6.10;3.60;;;4.60;99.90;;;;;;5031536;28;20429;-74
2024/01/30 01:18:20;;;;;;;8.03;3.40;;;4.50;99.90;;;;;;5033411;28;20225;-73
2024/01/30 01:20:45;;;;;;;7.60;3.50;;;5.70;99.90;;;;;;5043572;28;20650;-73
2024/01/30 01:23:11;;;;;;;5.37;3.10;;;5.70;99.90;;;;;;5035885;28;20271;-73
2024/01/30 01:25:36;;;;;;;8.30;3.00;;;4.60;99.90;;;;;;5039916;28;20235;-73
2024/01/30 01:28:03;;;;;;;7.97;2.77;;;4.50;99.90;;;;;;5035540;28;20175;-73
2024/01/30 01:30:29;;;;;;;7.00;3.20;;;4.40;99.90;;;;;;5031406;28;20710;-73
2024/01/30 01:33:00;;;;;;;4.47;2.67;;;4.30;99.90;;;;;;5030507;28;20540;-73
2024/01/30 01:35:26;;;;;;;9.30;4.10;;;4.20;99.90;;;;;;5040307;28;20192;-73
2024/01/30 01:37:55;;;;;;;6.50;4.07;;;4.00;99.90;;;;;;5035245;28;20433;-73
2024/01/30 01:40:22;;;;;;;6.63;3.33;;;4.00;99.90;;;;;;5030150;28;20225;-73
2024/01/30 01:42:52;;;;;;;5.63;2.53;;;4.20;99.90;;;;;;5033451;28;20774;-73
2024/01/30 01:45:19;;;;;;;10.97;2.77;;;3.70;99.90;;;;;;5034501;28;20428;-73
2024/01/30 01:47:55;;;;;;;6.40;3.20;;;4.80;99.90;;;;;;5034440;28;20424;-73
2024/01/30 01:50:22;;;;;;;5.50;3.07;;;3.70;99.90;;;;;;5026002;28;20461;-73
2024/01/30 01:52:48;;;;;;;9.73;3.80;;;3.60;99.90;;;;;;5052889;28;20467;-74
2024/01/30 01:55:15;;;;;;;4.50;2.90;;;4.80;99.90;;;;;;5042484;28;20462;-73
2024/01/30 01:57:42;;;;;;;10.93;3.00;;;3.30;99.90;;;;;;5047668;28;20421;-73
2024/01/30 02:00:10;;;;;;;5.77;3.00;;;3.30;99.90;;;;;;5047476;28;20431;-73
2024/01/30 02:02:36;;;;;;;7.83;3.10;;;3.20;99.90;;;;;;5047469;28;20820;-73
2024/01/30 02:05:01;;;;;;;6.20;3.70;;;4.20;99.90;;;;;;5047727;28;20420;-73
2024/01/30 02:07:28;;;;;;;10.27;4.13;;;3.70;99.90;;;;;;5021286;28;20507;-73
2024/01/30 02:09:54;;;;;;;7.50;3.90;;;3.20;99.90;;;;;;5034420;28;20685;-73
2024/01/30 02:12:20;;;;;;;8.97;3.80;;;3.20;99.90;;;;;;5033934;28;20437;-73
2024/01/30 02:14:46;;;;;;;9.73;3.57;;;4.30;99.90;;;;;;5034093;28;20762;-73
2024/01/30 02:17:13;;;;;;;9.43;2.80;;;4.20;99.90;;;;;;5021104;28;20581;-73
2024/01/30 02:19:38;;;;;;;6.97;2.97;;;3.00;99.90;;;;;;5039968;28;20486;-73
2024/01/30 02:22:04;;;;;;;4.77;2.97;;;3.00;99.90;;;;;;5047042;28;20429;-73
2024/01/30 02:24:30;;;;;;;7.20;3.03;;;3.10;99.90;;;;;;5047399;28;20309;-73
2024/01/30 02:26:55;;;;;;;6.10;2.87;;;4.10;99.90;;;;;;5034388;28;20425;-73
2024/01/30 02:29:21;;;;;;;5.00;2.50;;;3.50;99.90;;;;;;5033972;28;20635;-73
2024/01/30 02:31:47;;;;;;;6.53;2.60;;;3.20;99.90;;;;;;5034173;28;20284;-73
2024/01/30 02:34:13;;;;;;;7.30;3.00;;;3.20;99.90;;;;;;5033816;28;20191;-73
2024/01/30 02:36:38;;;;;;;7.67;3.40;;;3.10;99.90;;;;;;5027387;28;20186;-73
2024/01/30 02:39:04;;;;;;;4.10;2.27;;;3.00;99.90;;;;;;5041059;28;20519;-73
2024/01/30 02:41:29;;;;;;;4.90;2.90;;;3.00;99.90;;;;;;5032953;28;20217;-73
2024/01/30 02:43:55;;;;;;;3.50;2.17;;;3.50;99.90;;;;;;5041346;28;20213;-73
2024/01/30 02:46:20;;;;;;;4.33;2.20;;;2.80;99.90;;;;;;5047049;28;20199;-73
2024/01/30 02:48:46;;;;;;;7.00;3.47;;;4.10;99.90;;;;;;5033269;28;20182;-73
2024/01/30 02:51:11;;;;;;;7.50;3.33;;;3.70;99.90;;;;;;5039294;28;20234;-73
2024/01/30 02:53:37;;;;;;;6.17;2.90;;;2.70;99.90;;;;;;5040733;28;20220;-73
2024/01/30 02:56:03;;;;;;;6.53;2.43;;;2.60;99.90;;;;;;5046711;28;20589;-73
2024/01/30 02:58:28;;;;;;;4.90;2.10;;;2.50;99.90;;;;;;5045439;28;20193;-73
2024/01/30 03:00:54;;;;;;;4.70;2.70;;;2.50;99.90;;;;;;5034347;28;20475;-73
2024/01/30 03:03:19;;;;;;;5.37;2.70;;;2.50;99.90;;;;;;5044383;28;20217;-72
2024/01/30 03:05:45;;;;;;;5.87;3.40;;;2.60;99.90;;;;;;5034467;28;20850;-73
2024/01/30 03:08:10;;;;;;;4.57;2.77;;;2.50;99.90;;;;;;5040125;28;20202;-73
2024/01/30 03:10:36;;;;;;;4.83;2.60;;;2.50;99.90;;;;;;5032724;28;20656;-73
2024/01/30 03:13:01;;;;;;;5.53;2.50;;;2.40;99.90;;;;;;5033261;28;20216;-73
2024/01/30 03:15:27;;;;;;;7.27;3.00;;;2.30;99.90;;;;;;5033358;28;20182;-72
2024/01/30 03:17:53;;;;;;;5.83;3.23;;;2.30;99.90;;;;;;5045039;28;20189;-72
2024/01/30 03:20:19;;;;;;;8.03;3.17;;;2.20;99.90;;;;;;5044998;28;20300;-73
2024/01/30 03:22:45;;;;;;;8.20;3.10;;;2.20;99.90;;;;;;5041254;28;20844;-73
2024/01/30 03:25:10;;;;;;;5.83;3.03;;;2.10;99.90;;;;;;5046470;28;20189;-73
2024/01/30 03:27:36;;;;;;;12.60;3.30;;;2.10;99.90;;;;;;5032723;28;20190;-73
2024/01/30 03:30:01;;;;;;;7.50;3.80;;;2.00;99.90;;;;;;5046495;28;20596;-73
2024/01/30 03:32:27;;;;;;;5.00;2.63;;;2.00;99.90;;;;;;5033269;28;20178;-73
2024/01/30 03:34:53;;;;;;;8.13;3.40;;;2.00;99.90;;;;;;5036897;28;20208;-72
2024/01/30 03:37:18;;;;;;;6.70;3.40;;;2.00;99.90;;;;;;5052744;28;20213;-73
2024/01/30 03:39:44;;;;;;;4.87;3.17;;;1.90;99.90;;;;;;5037521;28;20721;-73
2024/01/30 03:42:09;;;;;;;6.70;3.33;;;2.00;99.90;;;;;;5047187;28;20236;-73
2024/01/30 03:44:35;;;;;;;7.33;3.90;;;1.90;99.90;;;;;;5041067;28;20213;-73
2024/01/30 03:47:00;;;;;;;7.13;3.07;;;1.90;99.90;;;;;;5042930;28;20186;-72
2024/01/30 03:49:26;;;;;;;5.00;2.60;;;1.90;99.90;;;;;;5042208;28;20248;-72
2024/01/30 03:51:51;;;;;;;8.30;4.27;;;2.10;99.90;;;;;;5043927;28;20190;-72
2024/01/30 03:54:17;;;;;;;6.43;3.00;;;3.10;99.90;;;;;;5047669;28;20312;-71
2024/01/30 03:56:42;;;;;;;16.20;4.63;;;3.30;99.90;;;;;;5043837;28;20322;-71
2024/01/30 03:59:08;;;;;;;5.67;3.20;;;2.00;99.90;;;;;;5034185;28;20209;-71
2024/01/30 04:01:33;;;;;;;7.73;3.77;;;1.90;99.90;;;;;;5043909;28;20181;-71
2024/01/30 04:03:59;;;;;;;5.17;2.70;;;1.90;99.90;;;;;;5049351;28;20224;-71
2024/01/30 04:06:24;;;;;;;7.30;3.37;;;1.70;99.90;;;;;;5040755;28;20194;-71
2024/01/30 04:08:50;;;;;;;6.13;3.80;;;1.60;99.90;;;;;;5031799;28;20651;-71
2024/01/30 04:11:18;;;;;;;5.57;2.83;;;1.50;99.90;;;;;;5037859;28;20186;-71
2024/01/30 04:13:44;;;;;;;14.80;3.83;;;1.40;99.90;;;;;;5036638;28;20186;-71
2024/01/30 04:16:20;;;;;;;5.70;3.20;;;1.40;99.90;;;;;;5034548;28;20436;-71
2024/01/30 04:18:46;;;;;;;17.57;3.40;;;1.30;99.90;;;;;;5038094;28;20657;-71
2024/01/30 04:21:11;;;;;;;7.40;3.20;;;1.30;99.90;;;;;;5044796;28;20432;-71
2024/01/30 04:23:36;;;;;;;7.30;3.00;;;1.20;99.90;;;;;;5045762;28;20217;-70
2024/01/30 04:26:02;;;;;;;6.80;3.23;;;1.20;99.90;;;;;;5045138;28;20538;-72
2024/01/30 04:28:28;;;;;;;6.10;3.20;;;1.10;99.90;;;;;;5051588;28;20186;-72
2024/01/30 04:30:54;;;;;;;11.63;3.13;;;1.00;99.90;;;;;;5039323;28;20508;-72
2024/01/30 04:33:19;;;;;;;7.37;3.20;;;0.90;99.90;;;;;;5044882;28;20623;-72
2024/01/30 04:35:45;;;;;;;7.77;3.90;;;0.90;99.90;;;;;;5028686;28;20270;-71
2024/01/30 04:38:10;;;;;;;10.97;4.10;;;0.90;99.90;;;;;;5031788;28;20653;-72
2024/01/30 04:40:36;;;;;;;8.37;3.17;;;0.90;99.90;;;;;;5028897;28;20187;-72
2024/01/30 04:43:01;;;;;;;9.20;3.93;;;0.70;99.90;;;;;;5025202;28;20206;-72
2024/01/30 04:45:27;;;;;;;3.90;2.63;;;0.60;99.90;;;;;;5026298;28;20191;-72
2024/01/30 04:47:52;;;;;;;8.13;3.23;;;0.60;99.90;;;;;;5023682;28;20179;-72
2024/01/30 04:50:18;;;;;;;7.07;3.20;;;0.60;99.90;;;;;;5023303;28;20237;-73
2024/01/30 04:52:44;;;;;;;5.13;2.60;;;0.60;99.90;;;;;;5024451;28;20261;-73
2024/01/30 04:55:09;;;;;;;12.27;3.87;;;0.60;99.90;;;;;;5040437;28;20503;-72
2024/01/30 04:57:35;;;;;;;8.53;3.23;;;0.70;99.90;;;;;;5037287;28;20736;-72
2024/01/30 05:00:00;;;;;;;3.73;2.63;;;0.70;99.90;;;;;;5035599;28;20626;-72
2024/01/30 05:02:27;;;;;;;7.97;4.00;;;0.60;99.90;;;;;;5032760;28;20600;-72
2024/01/30 05:04:52;;;;;;;8.60;3.80;;;0.60;99.90;;;;;;5031119;28;20719;-72
2024/01/30 05:07:18;;;;;;;7.27;3.60;;;0.60;99.90;;;;;;5036039;28;20515;-72
2024/01/30 05:09:43;;;;;;;7.33;3.30;;;0.60;99.90;;;;;;5033033;28;20239;-72
2024/01/30 05:12:09;;;;;;;6.83;3.50;;;0.60;99.90;;;;;;5030936;28;20182;-72
2024/01/30 05:14:34;;;;;;;7.73;3.47;;;0.60;99.90;;;;;;5031131;28;20328;-72
2024/01/30 05:17:00;;;;;;;6.77;3.03;;;0.60;99.90;;;;;;5035139;28;20260;-72
2024/01/30 05:19:25;;;;;;;9.13;3.50;;;0.60;99.90;;;;;;5040374;28;21016;-72
2024/01/30 05:21:51;;;;;;;8.17;3.53;;;0.60;99.90;;;;;;5044531;28;20693;-72
2024/01/30 05:24:16;;;;;;;5.83;3.50;;;0.60;99.90;;;;;;5040967;28;20194;-72
2024/01/30 05:26:43;;;;;;;10.00;3.80;;;0.60;99.90;;;;;;5040896;28;20205;-74
2024/01/30 05:29:08;;;;;;;7.60;3.60;;;0.60;99.90;;;;;;5055226;28;20436;-72
2024/01/30 05:31:34;;;;;;;8.67;3.77;;;0.60;99.90;;;;;;5055141;28;20214;-73
2024/01/30 05:34:00;;;;;;;7.50;3.17;;;0.60;99.90;;;;;;5054876;28;20192;-73
2024/01/30 05:36:26;;;;;;;7.67;3.20;;;0.60;99.90;;;;;;5038983;28;20417;-72
2024/01/30 05:38:51;;;;;;;8.07;3.67;;;0.50;99.90;;;;;;5043686;28;20610;-72
2024/01/30 05:41:17;;;;;;;8.23;3.57;;;0.50;99.90;;;;;;5038306;28;20710;-73
2024/01/30 05:43:42;;;;;;;7.70;3.50;;;0.50;99.90;;;;;;5035137;28;20200;-72
2024/01/30 05:46:08;;;;;;;6.53;3.83;;;0.50;99.90;;;;;;5037304;28;20269;-72
2024/01/30 05:48:35;;;;;;;6.60;3.60;;;0.50;99.90;;;;;;5045613;28;20178;-72
2024/01/30 05:51:00;;;;;;;10.10;3.50;;;0.50;99.90;;;;;;5034624;28;20496;-72
2024/01/30 05:53:26;;;;;;;6.13;3.47;;;0.40;99.90;;;;;;5045935;28;20455;-72
2024/01/30 05:55:52;;;;;;;4.20;2.57;;;0.40;99.90;;;;;;5041614;28;20239;-72
2024/01/30 05:58:17;;;;;;;8.80;3.73;;;0.50;99.90;;;;;;5043706;28;20283;-72
2024/01/30 06:00:43;;;;;;;8.53;4.00;;;0.40;99.90;;;;;;5047802;28;20265;-72
2024/01/30 06:03:08;;;;;;;6.83;3.67;;;0.80;99.90;;;;;;5045440;28;20263;-72
2024/01/30 06:05:34;;;;;;;7.67;4.07;;;0.40;99.90;;;;;;5041138;28;20256;-72
2024/01/30 06:07:59;;;;;;;10.70;4.03;;;0.40;99.90;;;;;;5040913;28;20217;-72
2024/01/30 06:10:25;;;;;;;6.07;3.23;;;0.40;99.90;;;;;;5034534;28;20182;-72
2024/01/30 06:12:50;;;;;;;8.30;3.20;;;0.40;99.90;;;;;;5034663;28;20269;-72
2024/01/30 06:15:16;;;;;;;7.27;3.87;;;0.40;99.90;;;;;;5047857;28;20178;-72
2024/01/30 06:17:41;;;;;;;12.27;4.60;;;0.30;99.90;;;;;;5045299;28;20269;-72
2024/01/30 06:20:07;;;;;;;7.90;3.67;;;0.30;99.90;;;;;;5046967;28;20268;-72
2024/01/30 06:22:33;;;;;;;9.70;4.60;;;0.30;99.90;;;;;;5043664;28;20213;-72
2024/01/30 06:24:58;;;;;;;11.73;4.70;;;0.30;99.90;;;;;;5051541;28;20311;-72
2024/01/30 06:27:24;;;;;;;11.77;3.93;;;0.30;99.90;;;;;;5054295;28;20216;-72
2024/01/30 06:29:49;;;;;;;6.80;3.60;;;0.30;99.90;;;;;;5037522;28;20576;-71
2024/01/30 06:32:15;;;;;;;10.33;3.70;;;0.30;99.90;;;;;;5034500;28;20308;-71
2024/01/30 06:34:41;;;;;;;8.37;3.63;;;0.30;99.90;;;;;;5047403;28;20550;-71
2024/01/30 06:37:06;;;;;;;8.37;3.67;;;0.30;99.90;;;;;;5032801;28;20186;-71
2024/01/30 06:39:32;;;;;;;10.30;4.97;;;0.30;99.90;;;;;;5041496;28;20420;-71
2024/01/30 06:41:57;;;;;;;7.90;3.83;;;0.30;99.90;;;;;;5043626;28;20182;-71
2024/01/30 06:44:23;;;;;;;10.70;4.20;;;0.30;99.90;;;;;;5045847;28;20244;-71
2024/01/30 06:46:48;;;;;;;5.10;3.50;;;0.30;99.90;;;;;;5054062;28;20939;-71
2024/01/30 06:49:14;;;;;;;13.00;5.20;;;0.20;99.90;;;;;;5037237;28;20222;-71
2024/01/30 06:51:39;;;;;;;8.33;4.03;;;0.20;99.90;;;;;;5043478;28;20200;-71
2024/01/30 06:54:05;;;;;;;8.73;4.57;;;0.20;99.90;;;;;;5053325;28;20190;-71
2024/01/30 06:56:30;;;;;;;7.17;4.30;;;0.30;99.90;;;;;;5044162;28;20193;-71
2024/01/30 06:58:58;;;;;;;8.13;3.37;;;0.30;99.90;;;;;;5033666;28;20574;-71
2024/01/30 07:01:28;;;;;;;9.57;4.13;;;0.70;99.90;;;;;;5043454;28;20248;-72
2024/01/30 07:03:54;;;;;;;13.33;5.97;;;0.30;99.90;;;;;;5053235;28;21025;-72
2024/01/30 07:06:20;;;;;;;12.70;6.97;;;0.30;99.90;;;;;;5053209;28;20416;-71
2024/01/30 07:08:46;;;;;;;12.80;7.20;;;0.40;99.90;;;;;;5033100;28;20196;-71
2024/01/30 07:11:25;;;;;;;17.30;7.10;;;0.40;99.90;;;;;;5032717;28;20866;-73
2024/01/30 07:13:51;;;;;;;14.27;6.47;;;0.40;99.90;;;;;;5033003;28;20193;-74
2024/01/30 07:16:17;;;;;;;15.67;6.97;;;0.50;99.90;;;;;;5033174;28;20504;-74
2024/01/30 07:18:43;;;;;;;10.97;6.60;;;0.50;99.90;;;;;;5038582;28;20519;-72
2024/01/30 07:21:09;;;;;;;12.30;6.50;;;0.90;99.90;;;;;;5025524;28;20194;-73
2024/01/30 07:23:35;;;;;;;12.00;5.50;;;0.60;99.90;;;;;;5038506;28;20467;-72
2024/01/30 07:26:01;;;;;;;8.73;5.90;;;2.00;99.90;;;;;;5042420;28;20182;-73
2024/01/30 07:28:26;;;;;;;9.77;4.33;;;0.80;99.90;;;;;;5033723;28;20218;-73
2024/01/30 07:30:52;;;;;;;8.80;4.27;;;0.70;99.90;;;;;;5034230;28;20456;-73
2024/01/30 07:33:18;;;;;;;8.53;4.13;;;0.70;99.90;;;;;;5038644;28;20217;-73
2024/01/30 07:35:44;;;;;;;13.33;4.27;;;0.70;99.90;;;;;;5027524;28;20185;-73
2024/01/30 07:38:10;;;;;;;8.73;3.90;;;0.80;99.90;;;;;;5031802;28;20267;-73
2024/01/30 07:40:35;;;;;;;12.07;5.20;;;1.00;99.90;;;;;;5043552;28;20950;-73
2024/01/30 07:43:03;;;;;;;7.20;3.10;;;1.20;99.90;;;;;;5039004;28;20228;-73
2024/01/30 07:45:32;;;;;;;9.80;3.73;;;1.60;99.90;;;;;;5043187;28;20257;-73
2024/01/30 07:47:59;;;;;;;9.53;3.13;;;2.00;99.90;;;;;;5050338;28;20420;-72
2024/01/30 07:50:25;;;;;;;5.30;3.10;;;2.20;99.90;;;;;;5038238;28;20492;-73
2024/01/30 07:52:54;;;;;;;6.57;3.90;;;2.30;99.90;;;;;;5045232;28;20456;-73
2024/01/30 07:55:21;;;;;;;12.30;3.70;;;2.50;99.90;;;;;;5045332;28;20182;-74
2024/01/30 07:57:47;;;;;;;6.20;3.37;;;2.60;99.90;;;;;;5031659;28;20439;-73
2024/01/30 08:00:13;;;;;;;8.97;4.03;;;2.60;99.90;;;;;;5045175;28;20909;-73
2024/01/30 08:02:39;;;;;;;7.80;4.03;;;2.80;99.90;;;;;;5025866;28;20234;-73
2024/01/30 08:05:04;;;;;;;10.73;4.20;;;2.90;99.90;;;;;;5047133;28;20555;-73
2024/01/30 08:07:30;;;;;;;6.97;2.80;;;3.00;99.90;;;;;;5032697;28;20193;-73
2024/01/30 08:09:56;;;;;;;4.87;2.93;;;3.20;99.90;;;;;;5032737;28;20224;-72
2024/01/30 08:12:21;;;;;;;6.93;3.53;;;3.30;99.90;;;;;;5038648;28;20234;-71
2024/01/30 08:14:46;;;;;;;6.77;3.40;;;3.40;99.90;;;;;;5040674;28;20187;-71
2024/01/30 08:17:12;;;;;;;8.20;3.80;;;3.50;99.90;;;;;;5051271;28;20229;-73
2024/01/30 08:19:37;;;;;;;4.30;3.13;;;3.50;99.90;;;;;;5053707;28;20277;-77
2024/01/30 08:22:03;;;;;;;7.40;3.40;;;3.70;99.90;;;;;;5042975;28;20548;-73
2024/01/30 08:24:28;;;;;;;8.90;3.27;;;3.80;99.90;;;;;;5048786;28;20217;-73
2024/01/30 08:26:54;;;;;;;5.93;3.00;;;3.80;99.90;;;;;;5036627;28;20182;-73
2024/01/30 08:29:19;;;;;;;7.80;3.60;;;4.00;99.90;;;;;;5033553;28;20258;-73
2024/01/30 08:31:46;;;;;;;7.70;2.83;;;4.20;99.90;;;;;;5038581;28;20289;-75
2024/01/30 08:34:11;;;;;;;4.13;2.30;;;4.40;99.90;;;;;;5051756;28;20181;-73
2024/01/30 08:36:37;;;;;;;7.40;3.73;;;4.80;99.90;;;;;;5046473;28;20432;-76
2024/01/30 08:39:02;;;;;;;6.13;3.20;;;4.80;99.90;;;;;;5034768;28;20183;-71
2024/01/30 08:41:28;;;;;;;4.63;3.00;;;5.00;99.90;;;;;;5046596;28;20724;-71
2024/01/30 08:43:54;;;;;;;7.07;3.50;;;5.00;99.90;;;;;;5046246;28;20202;-71
2024/01/30 08:46:19;;;;;;;9.43;3.53;;;5.10;99.90;;;;;;5038736;28;20185;-71
2024/01/30 08:48:47;;;;;;;4.57;2.97;;;5.30;99.90;;;;;;5040819;28;20220;-71
2024/01/30 08:51:12;;;;;;;5.53;2.77;;;5.50;99.90;;;;;;5031948;28;21024;-71
2024/01/30 08:53:39;;;;;;;6.07;2.93;;;5.70;99.90;;;;;;5022306;28;20536;-72
2024/01/30 08:56:06;;;;;;;8.23;3.10;;;5.80;99.90;;;;;;5049803;28;20197;-71
2024/01/30 08:58:31;;;;;;;6.40;3.90;;;5.80;99.90;;;;;;5045895;28;20425;-71
2024/01/30 09:00:57;;;;;;;13.20;5.33;;;5.80;99.90;;;;;;5040824;28;20486;-71
2024/01/30 09:03:22;;;;;;;6.13;2.87;;;6.10;99.90;;;;;;5030695;28;20846;-71
2024/01/30 09:05:48;;;;;;;5.80;3.13;;;6.00;99.90;;;;;;5044189;28;20185;-71
2024/01/30 09:08:13;;;;;;;15.53;3.20;;;6.00;99.90;;;;;;5026788;28;20197;-72
2024/01/30 09:10:39;;;;;;;6.57;2.83;;;6.00;99.90;;;;;;5044676;28;20220;-71
2024/01/30 09:13:04;;;;;;;12.13;3.30;;;6.20;99.90;;;;;;5043196;28;20479;-71
2024/01/30 09:15:30;;;;;;;4.57;2.90;;;6.40;99.90;;;;;;5037849;28;20650;-71
2024/01/30 09:17:55;;;;;;;2.83;1.90;;;6.60;99.90;;;;;;5042648;28;20201;-71
2024/01/30 09:20:22;;;;;;;4.70;2.70;;;6.90;99.60;;;;;;5035329;28;20293;-71
2024/01/30 09:22:48;;;;;;;4.10;2.63;;;6.90;99.40;;;;;;5043123;28;20187;-71
2024/01/30 09:25:13;;;;;;;6.80;2.97;;;7.10;98.80;;;;;;5032853;28;21127;-71
2024/01/30 09:27:40;;;;;;;3.30;2.13;;;7.10;98.90;;;;;;5028830;28;20194;-71
2024/01/30 09:30:06;;;;;;;5.37;2.63;;;7.20;99.10;;;;;;5031135;28;20257;-71
2024/01/30 09:32:31;;;;;;;4.47;2.70;;;7.20;99.00;;;;;;5047100;28;20893;-73
2024/01/30 09:34:57;;;;;;;6.30;3.07;;;7.30;98.80;;;;;;5033122;28;20441;-71
2024/01/30 09:37:22;;;;;;;5.27;2.30;;;7.40;99.00;;;;;;5025675;28;20281;-71
2024/01/30 09:39:48;;;;;;;4.27;1.57;;;7.70;98.70;;;;;;5031380;28;20198;-72
2024/01/30 09:42:37;;;;;;;3.20;1.30;;;8.30;98.10;;;;;;5047783;28;20202;-71
2024/01/30 09:45:05;;;;;;;4.93;1.80;;;8.20;97.60;;;;;;5032260;28;20299;-71
2024/01/30 09:47:44;;;;;;;2.13;1.13;;;8.40;97.10;;;;;;5039710;28;20482;-72
2024/01/30 09:50:14;;;;;;;2.50;1.50;;;8.50;96.90;;;;;;5030731;28;20863;-72
2024/01/30 09:52:40;;;;;;;1.50;0.90;;;9.10;97.10;;;;;;5034086;28;20422;-72
2024/01/30 09:55:07;;;;;;;4.53;1.83;;;8.60;96.70;;;;;;5033944;28;20490;-72
2024/01/30 09:57:33;;;;;;;4.70;1.43;;;8.80;96.20;;;;;;5032167;28;20646;-72
2024/01/30 09:59:59;;;;;;;2.53;1.53;;;9.40;96.40;;;;;;5030724;28;20432;-72
2024/01/30 10:02:24;;;;;;;2.50;1.43;;;8.90;96.00;;;;;;5036270;28;20444;-75
2024/01/30 10:04:51;;;;;;;3.33;1.70;;;9.00;95.50;;;;;;5040957;28;20808;-72
2024/01/30 10:07:20;;;;;;;3.73;1.87;;;9.00;95.80;;;;;;5036367;28;20190;-72
2024/01/30 10:09:46;;;;;;;3.77;1.40;;;9.20;95.50;;;;;;5036781;28;20425;-72
2024/01/30 10:12:12;;;;;;;2.27;1.43;;;9.20;95.00;;;;;;5035131;28;20435;-73
2024/01/30 10:14:41;;;;;;;2.07;1.23;;;9.40;95.80;;;;;;5036764;28;20182;-72
2024/01/30 10:17:09;;;;;;;1.87;1.23;;;9.10;95.70;;;;;;5038685;28;20456;-72
2024/01/30 10:19:35;;;;;;;3.13;1.30;;;9.20;95.30;;;;;;5040470;28;20535;-72
2024/01/30 10:22:01;;;;;;;2.10;1.30;;;9.30;95.20;;;;;;5042400;28;20937;-73
2024/01/30 10:24:27;;;;;;;2.90;1.30;;;9.50;95.10;;;;;;5042426;28;20501;-73
2024/01/30 10:26:53;;;;;;;4.53;1.70;;;9.40;94.80;;;;;;5041226;28;20186;-73
2024/01/30 10:29:19;;;;;;;2.07;1.30;;;9.80;95.20;;;;;;5041134;28;20448;-71
2024/01/30 10:31:44;;;;;;;3.73;1.80;;;9.50;94.60;;;;;;5042795;28;20646;-71
2024/01/30 10:34:10;;;;;;;2.50;1.53;;;9.50;95.10;;;;;;5047136;28;20208;-71
2024/01/30 10:36:49;;;;;;;1.90;1.30;;;9.60;94.70;;;;;;5038433;28;20220;-70
2024/01/30 10:39:17;;;;;;;3.33;1.57;;;9.80;94.90;;;;;;5031356;28;20182;-70
2024/01/30 10:41:44;;;;;;;11.40;1.63;;;9.70;94.70;;;;;;5023436;28;20424;-71
2024/01/30 10:44:11;;;;;;;1.70;1.17;;;9.80;94.30;;;;;;5044066;28;20467;-71
2024/01/30 10:46:38;;;;;;;2.20;1.33;;;10.30;94.10;;;;;;5038526;28;20424;-71
2024/01/30 10:49:04;;;;;;;3.10;1.57;;;10.50;94.00;;;;;;5049416;28;20491;-71
2024/01/30 10:51:31;;;;;;;2.23;1.27;;;10.00;93.70;;;;;;5041519;28;21058;-71
2024/01/30 10:53:57;;;;;;;4.03;1.33;;;10.10;93.60;;;;;;5039768;28;20561;-71
2024/01/30 10:56:24;;;;;;;1.77;1.27;;;10.10;93.40;;;;;;5038393;28;20444;-71
2024/01/30 10:58:55;;;;;;;4.20;1.70;;;10.10;93.60;;;;;;5049154;28;20939;-72
2024/01/30 11:01:23;;;;;;;5.03;2.20;;;10.30;93.10;;;;;;5040333;28;20845;-71
2024/01/30 11:03:56;;;;;;;3.20;2.10;;;10.30;93.30;;;;;;5038788;28;20468;-71
2024/01/30 11:06:27;;;;;;;6.57;2.40;;;10.30;92.70;;;;;;5045937;28;20429;-72
2024/01/30 11:09:07;;;;;;;4.57;2.20;;;10.40;92.60;;;;;;5039191;28;20424;-72
2024/01/30 11:11:50;;;;;;;5.60;2.83;;;10.50;92.80;;;;;;5033140;28;20753;-72
2024/01/30 11:14:16;;;;;;;5.00;2.90;;;10.50;92.00;;;;;;5031945;28;20455;-72
2024/01/30 11:16:42;;;;;;;2.80;1.70;;;10.50;92.40;;;;;;5045860;28;20424;-72
2024/01/30 11:19:12;;;;;;;2.67;1.70;;;10.50;92.30;;;;;;5044455;28;20193;-73
2024/01/30 11:21:41;;;;;;;2.93;1.80;;;10.70;92.00;;;;;;5048572;28;20424;-73
2024/01/30 11:24:08;;;;;;;3.70;2.20;;;10.60;92.30;;;;;;5041547;28;20471;-73
2024/01/30 11:26:34;;;;;;;5.50;2.33;;;10.50;92.40;;;;;;5043854;28;20937;-74
2024/01/30 11:29:04;;;;;;;3.13;2.20;;;10.60;92.20;;;;;;5043194;28;20437;-73
2024/01/30 11:31:29;;;;;;;7.73;1.50;;;10.70;92.00;;;;;;5043303;28;20567;-73
2024/01/30 11:33:56;;;;;;;2.57;1.50;;;10.70;92.30;;;;;;5032607;28;20993;-73
2024/01/30 11:36:25;;;;;;;1.97;1.10;;;10.70;92.40;;;;;;5039744;28;20189;-73
2024/01/30 11:38:51;;;;;;;2.10;1.40;;;10.60;92.50;;;;;;5049435;28;20927;-73
2024/01/30 11:41:17;;;;;;;3.60;1.93;;;10.60;92.80;;;;;;5040816;28;20420;-73
2024/01/30 11:43:51;;;;;;;5.30;1.83;;;10.60;92.50;;;;;;5038771;28;20287;-72
2024/01/30 11:46:17;;;;;;;4.20;1.70;;;10.70;91.70;;;;;;5047314;28;20432;-73
2024/01/30 11:48:42;;;;;;;4.77;2.00;;;10.80;91.80;;;;;;5036504;28;20417;-73
2024/01/30 11:51:08;;;;;;;3.20;1.80;;;10.90;91.80;;;;;;5038968;28;20699;-73
2024/01/30 11:53:33;;;;;;;4.60;1.90;;;10.90;91.70;;;;;;5040097;28;20708;-73
2024/01/30 11:55:59;;;;;;;2.47;1.83;;;10.70;92.10;;;;;;5032008;28;20198;-73
2024/01/30 11:58:26;;;;;;;8.03;1.90;;;10.80;91.90;;;;;;5036863;28;20189;-73
2024/01/30 12:00:55;;;;;;;3.37;1.93;;;10.90;91.10;;;;;;5047406;28;20175;-73
2024/01/30 12:03:22;;;;;;;5.50;2.10;;;10.90;91.80;;;;;;5036665;28;20877;-73
2024/01/30 12:05:55;;;;;;;2.60;1.43;;;11.00;91.80;;;;;;5039353;28;20966;-73
2024/01/30 12:08:21;;;;;;;4.57;2.17;;;11.20;91.70;;;;;;5036142;28;20791;-72
2024/01/30 12:10:54;;;;;;;2.20;1.30;;;11.10;92.10;;;;;;5037127;28;20471;-76
2024/01/30 12:13:20;;;;;;;3.30;1.50;;;11.00;92.50;;;;;;5023870;28;20194;-72
2024/01/30 12:15:45;;;;;;;2.20;1.60;;;11.00;92.30;;;;;;5031471;28;20424;-72
2024/01/30 12:18:11;;;;;;;2.60;1.50;;;10.90;92.40;;;;;;5041472;28;20201;-74
2024/01/30 12:20:36;;;;;;;3.90;1.70;;;11.00;92.10;;;;;;5034348;28;20197;-74
2024/01/30 12:23:02;;;;;;;2.30;1.40;;;11.10;92.50;;;;;;5028407;28;20677;-74
2024/01/30 12:25:28;;;;;;;3.27;2.27;;;11.20;92.20;;;;;;5030635;28;20212;-74
2024/01/30 12:27:54;;;;;;;5.50;1.83;;;11.20;92.30;;;;;;5040406;28;20941;-74
2024/01/30 12:30:20;;;;;;;3.47;1.57;;;11.30;92.30;;;;;;5031931;28;20186;-73
2024/01/30 12:32:49;;;;;;;1.97;1.33;;;11.30;92.60;;;;;;5036792;28;20425;-73
2024/01/30 12:35:20;;;;;;;1.70;1.10;;;11.30;92.70;;;;;;5046282;28;20460;-74
2024/01/30 12:37:46;;;;;;;3.00;1.40;;;11.30;92.60;;;;;;5040763;28;20425;-73
2024/01/30 12:40:14;;;;;;;3.53;1.57;;;11.30;92.40;;;;;;5034439;28;20424;-73
2024/01/30 12:42:41;;;;;;;3.00;1.47;;;11.40;92.50;;;;;;5049342;28;20429;-74
2024/01/30 12:45:07;;;;;;;3.50;2.00;;;11.50;92.70;;;;;;5046850;28;20483;-75
2024/01/30 12:47:33;;;;;;;3.60;2.13;;;11.60;92.50;;;;;;5039957;28;20436;-74